Time,TemperatureF,DewpointF,PressureIn,WindDirection,WindDirectionDegrees,WindSpeedMPH,WindSpeedGustMPH,Humidity,HourlyPrecipIn,Conditions,Clouds,dailyrainin,SoftwareType,DateUTC
2013-02-20 00:01:00,46.0,17.0,29.32,SW,225,6.0,11.0,31,0.00,,,0.00,,2013-02-20 07:01:00,
2013-02-20 00:11:00,46.0,17.0,29.32,SW,225,6.0,11.0,31,0.00,,,0.00,,2013-02-20 07:11:00,
2013-02-20 00:21:00,45.0,15.0,29.32,SSW,203,9.0,13.0,30,0.00,,,0.00,,2013-02-20 07:21:00,
2013-02-20 00:31:00,45.0,15.0,29.32,SW,225,8.0,13.0,30,0.00,,,0.00,,2013-02-20 07:31:00,
2013-02-20 00:41:00,45.0,15.0,29.32,SW,225,8.0,13.0,30,0.00,,,0.00,,2013-02-20 07:41:00,
2013-02-20 00:52:00,45.0,16.0,29.32,WSW,248,9.0,15.0,31,0.00,,,0.00,,2013-02-20 07:52:00,
2013-02-20 01:01:00,44.0,16.0,29.29,SSW,203,8.0,13.0,32,0.00,,,0.00,,2013-02-20 08:01:00,
2013-02-20 01:11:00,44.0,16.0,29.29,SSW,203,8.0,13.0,32,0.00,,,0.00,,2013-02-20 08:11:00,
2013-02-20 01:21:00,44.0,16.0,29.32,SE,135,7.0,11.0,32,0.00,,,0.00,,2013-02-20 08:21:00,
2013-02-20 01:31:00,44.0,15.0,29.32,SE,135,6.0,11.0,31,0.00,,,0.00,,2013-02-20 08:31:00,
2013-02-20 01:41:00,44.0,15.0,29.32,SE,135,6.0,11.0,31,0.00,,,0.00,,2013-02-20 08:41:00,
2013-02-20 01:51:00,44.0,17.0,29.29,SW,225,9.0,15.0,33,0.00,,,0.00,,2013-02-20 08:51:00,
2013-02-20 02:01:00,44.0,18.0,29.32,South,180,6.0,10.0,35,0.00,,,0.00,,2013-02-20 09:01:00,
2013-02-20 02:11:00,44.0,18.0,29.32,South,180,6.0,10.0,35,0.00,,,0.00,,2013-02-20 09:11:00,
2013-02-20 02:21:00,43.0,19.0,29.32,South,180,6.0,10.0,37,0.00,,,0.00,,2013-02-20 09:21:00,
2013-02-20 02:31:00,43.0,19.0,29.36,SW,225,6.0,9.0,38,0.00,,,0.00,,2013-02-20 09:31:00,
2013-02-20 02:41:00,43.0,19.0,29.36,SW,225,6.0,9.0,38,0.00,,,0.00,,2013-02-20 09:41:00,
2013-02-20 02:51:00,43.0,20.0,29.32,South,180,7.0,10.0,39,0.00,,,0.00,,2013-02-20 09:51:00,
2013-02-20 03:01:00,43.0,20.0,29.29,South,180,5.0,6.0,39,0.00,,,0.00,,2013-02-20 10:01:00,
2013-02-20 03:12:00,43.0,20.0,29.29,South,180,5.0,6.0,39,0.00,,,0.00,,2013-02-20 10:12:00,
2013-02-20 03:21:00,42.0,20.0,29.29,South,180,6.0,10.0,41,0.00,,,0.00,,2013-02-20 10:21:00,
2013-02-20 03:31:00,42.0,23.0,29.29,SW,225,14.0,23.0,47,0.00,,,0.00,,2013-02-20 10:31:00,
2013-02-20 03:41:00,42.0,23.0,29.29,SW,225,14.0,23.0,47,0.00,,,0.00,,2013-02-20 10:41:00,
2013-02-20 03:51:00,40.0,28.0,29.29,WSW,248,12.0,15.0,61,0.00,,,0.00,,2013-02-20 10:51:00,
2013-02-20 04:01:00,38.0,28.0,29.32,SW,225,10.0,16.0,68,0.00,,,0.00,,2013-02-20 11:01:00,
2013-02-20 04:11:00,36.0,27.0,29.32,SSE,158,4.0,9.0,70,0.00,,,0.00,,2013-02-20 11:11:00,
2013-02-20 04:21:00,36.0,27.0,29.32,SSE,158,4.0,9.0,70,0.00,,,0.00,,2013-02-20 11:21:00,
2013-02-20 04:31:00,36.0,27.0,29.29,ESE,113,2.0,3.0,69,0.00,,,0.00,,2013-02-20 11:31:00,
2013-02-20 04:41:00,36.0,27.0,29.29,ESE,113,2.0,3.0,69,0.00,,,0.00,,2013-02-20 11:41:00,
2013-02-20 04:52:00,36.0,27.0,29.32,ESE,113,2.0,2.0,70,0.00,,,0.00,,2013-02-20 11:52:00,
2013-02-20 05:01:00,35.0,27.0,29.32,SE,135,3.0,4.0,72,0.00,,,0.00,,2013-02-20 12:01:00,
2013-02-20 05:11:00,35.0,27.0,29.32,SE,135,3.0,4.0,72,0.00,,,0.00,,2013-02-20 12:11:00,
2013-02-20 05:21:00,35.0,27.0,29.29,ESE,113,2.0,4.0,73,0.00,,,0.00,,2013-02-20 12:21:00,
2013-02-20 05:31:00,35.0,27.0,29.29,SE,135,0.0,2.0,73,0.00,,,0.00,,2013-02-20 12:31:00,
2013-02-20 05:41:00,35.0,27.0,29.29,SE,135,0.0,2.0,73,0.00,,,0.00,,2013-02-20 12:41:00,
2013-02-20 05:52:00,35.0,28.0,29.29,ESE,113,2.0,4.0,74,0.00,,,0.00,,2013-02-20 12:52:00,
2013-02-20 06:01:00,35.0,28.0,29.29,SSE,158,0.0,1.0,74,0.00,,,0.00,,2013-02-20 13:01:00,
2013-02-20 06:11:00,35.0,28.0,29.29,SSE,158,0.0,1.0,74,0.00,,,0.00,,2013-02-20 13:11:00,
2013-02-20 06:22:00,36.0,29.0,29.29,SSE,158,1.0,2.0,75,0.00,,,0.00,,2013-02-20 13:22:00,
2013-02-20 06:31:00,36.0,29.0,29.29,NE,45,0.0,1.0,75,0.00,,,0.00,,2013-02-20 13:31:00,
2013-02-20 06:42:00,36.0,29.0,29.29,NE,45,0.0,1.0,75,0.00,,,0.00,,2013-02-20 13:42:00,
2013-02-20 06:51:00,37.0,30.0,29.26,East,90,0.0,2.0,75,0.00,,,0.00,,2013-02-20 13:51:00,
2013-02-20 07:01:00,37.0,30.0,29.29,South,180,2.0,3.0,76,0.00,,,0.00,,2013-02-20 14:01:00,
2013-02-20 07:11:00,37.0,30.0,29.29,South,180,2.0,3.0,76,0.00,,,0.00,,2013-02-20 14:11:00,
2013-02-20 07:21:00,37.0,30.0,29.29,South,180,0.0,2.0,76,0.00,,,0.00,,2013-02-20 14:21:00,
2013-02-20 07:32:00,36.0,29.0,29.29,SSW,203,4.0,6.0,77,0.00,,,0.00,,2013-02-20 14:32:00,
2013-02-20 07:42:00,36.0,29.0,29.29,SSW,203,4.0,6.0,77,0.00,,,0.00,,2013-02-20 14:42:00,
2013-02-20 07:52:00,36.0,29.0,29.26,NE,45,2.0,3.0,77,0.03,,,0.03,,2013-02-20 14:52:00,
2013-02-20 08:01:00,37.0,30.0,29.26,South,180,0.0,1.0,77,0.03,,,0.03,,2013-02-20 15:01:00,
2013-02-20 08:11:00,37.0,30.0,29.26,South,180,4.0,4.0,77,0.03,,,0.03,,2013-02-20 15:11:00,
2013-02-20 08:22:00,37.0,30.0,29.26,South,180,4.0,4.0,77,0.03,,,0.03,,2013-02-20 15:22:00,
2013-02-20 08:31:00,37.0,30.0,29.26,SE,135,2.0,4.0,77,0.03,,,0.03,,2013-02-20 15:31:00,
2013-02-20 08:41:00,38.0,31.0,29.26,ENE,68,1.0,3.0,77,0.04,,,0.07,,2013-02-20 15:41:00,
2013-02-20 08:52:00,38.0,31.0,29.26,ENE,68,1.0,3.0,77,0.04,,,0.07,,2013-02-20 15:52:00,
2013-02-20 09:01:00,38.0,31.0,29.22,ESE,113,1.0,4.0,76,0.04,,,0.07,,2013-02-20 16:01:00,
2013-02-20 09:11:00,38.0,31.0,29.22,ESE,113,1.0,4.0,76,0.04,,,0.07,,2013-02-20 16:11:00,
2013-02-20 09:21:00,38.0,30.0,29.22,ESE,113,2.0,3.0,74,0.04,,,0.07,,2013-02-20 16:21:00,
2013-02-20 09:32:00,38.0,31.0,29.26,ESE,113,1.0,1.0,75,0.04,,,0.07,,2013-02-20 16:32:00,
2013-02-20 09:41:00,38.0,31.0,29.26,ESE,113,1.0,1.0,75,0.04,,,0.07,,2013-02-20 16:41:00,
2013-02-20 09:52:00,39.0,31.0,29.26,South,180,2.0,3.0,74,0.04,,,0.11,,2013-02-20 16:52:00,
2013-02-20 10:01:00,38.0,30.0,29.26,SSE,158,3.0,6.0,73,0.04,,,0.11,,2013-02-20 17:01:00,
2013-02-20 10:11:00,38.0,30.0,29.26,South,180,3.0,4.0,74,0.04,,,0.11,,2013-02-20 17:11:00,
2013-02-20 10:21:00,38.0,30.0,29.26,South,180,3.0,4.0,74,0.04,,,0.11,,2013-02-20 17:21:00,
2013-02-20 10:32:00,38.0,30.0,29.26,South,180,3.0,4.0,74,0.04,,,0.11,,2013-02-20 17:32:00,
2013-02-20 10:41:00,38.0,30.0,29.26,South,180,3.0,4.0,74,0.04,,,0.11,,2013-02-20 17:41:00,
2013-02-20 10:52:00,38.0,31.0,29.26,SSW,203,4.0,7.0,75,0.00,,,0.11,,2013-02-20 17:52:00,
2013-02-20 11:02:00,38.0,31.0,29.22,SE,135,3.0,7.0,76,0.00,,,0.11,,2013-02-20 18:02:00,
2013-02-20 11:11:00,38.0,31.0,29.22,SE,135,3.0,7.0,76,0.00,,,0.11,,2013-02-20 18:11:00,
2013-02-20 11:21:00,37.0,30.0,29.22,SSE,158,4.0,6.0,77,0.00,,,0.11,,2013-02-20 18:21:00,
2013-02-20 11:31:00,37.0,30.0,29.26,South,180,2.0,4.0,76,0.05,,,0.16,,2013-02-20 18:31:00,
2013-02-20 11:41:00,37.0,30.0,29.26,South,180,2.0,4.0,76,0.05,,,0.16,,2013-02-20 18:41:00,
2013-02-20 11:52:00,37.0,30.0,29.26,SE,135,2.0,4.0,77,0.05,,,0.16,,2013-02-20 18:52:00,
2013-02-20 12:01:00,36.0,30.0,29.22,ESE,113,3.0,4.0,78,0.05,,,0.16,,2013-02-20 19:01:00,
2013-02-20 12:11:00,36.0,30.0,29.22,ESE,113,3.0,4.0,78,0.05,,,0.16,,2013-02-20 19:11:00,
2013-02-20 12:21:00,36.0,30.0,29.26,SSW,203,3.0,4.0,79,0.05,,,0.16,,2013-02-20 19:21:00,
2013-02-20 12:31:00,36.0,30.0,29.29,SSW,203,4.0,6.0,80,0.00,,,0.16,,2013-02-20 19:31:00,
2013-02-20 12:41:00,36.0,30.0,29.29,SSW,203,4.0,6.0,80,0.00,,,0.16,,2013-02-20 19:41:00,
2013-02-20 12:52:00,36.0,31.0,29.29,SSE,158,7.0,10.0,82,0.00,,,0.16,,2013-02-20 19:52:00,
2013-02-20 13:01:00,35.0,30.0,29.29,South,180,5.0,9.0,83,0.04,,,0.19,,2013-02-20 20:01:00,
2013-02-20 13:11:00,34.0,30.0,29.32,SSW,203,8.0,13.0,86,0.04,,,0.19,,2013-02-20 20:11:00,
2013-02-20 13:21:00,34.0,30.0,29.32,SSW,203,8.0,13.0,86,0.04,,,0.19,,2013-02-20 20:21:00,
2013-02-20 13:31:00,34.0,30.0,29.32,South,180,5.0,7.0,84,0.04,,,0.19,,2013-02-20 20:31:00,
2013-02-20 13:41:00,34.0,29.0,29.32,SW,225,4.0,6.0,82,0.04,,,0.19,,2013-02-20 20:41:00,
2013-02-20 13:51:00,34.0,29.0,29.32,SW,225,4.0,6.0,82,0.04,,,0.19,,2013-02-20 20:51:00,
2013-02-20 14:01:00,35.0,30.0,29.29,SW,225,2.0,3.0,81,0.00,,,0.19,,2013-02-20 21:01:00,
2013-02-20 14:11:00,35.0,29.0,29.32,NE,45,2.0,4.0,80,0.00,,,0.19,,2013-02-20 21:11:00,
2013-02-20 14:21:00,35.0,29.0,29.32,NE,45,2.0,4.0,80,0.00,,,0.19,,2013-02-20 21:21:00,
2013-02-20 14:31:00,35.0,30.0,29.32,SSE,158,3.0,3.0,81,0.00,,,0.19,,2013-02-20 21:31:00,
2013-02-20 14:41:00,35.0,30.0,29.32,SSE,158,3.0,3.0,81,0.00,,,0.19,,2013-02-20 21:41:00,
2013-02-20 14:52:00,35.0,30.0,29.32,SSW,203,4.0,6.0,81,0.00,,,0.19,,2013-02-20 21:52:00,
2013-02-20 15:01:00,34.0,29.0,29.29,SSE,158,3.0,4.0,81,0.00,,,0.19,,2013-02-20 22:01:00,
2013-02-20 15:11:00,34.0,28.0,29.32,SSE,158,0.0,0.0,80,0.00,,,0.19,,2013-02-20 22:11:00,
2013-02-20 15:21:00,34.0,28.0,29.32,SSE,158,0.0,0.0,80,0.00,,,0.19,,2013-02-20 22:21:00,
2013-02-20 15:31:00,35.0,29.0,29.32,SSE,158,0.0,0.0,80,0.00,,,0.19,,2013-02-20 22:31:00,
2013-02-20 15:41:00,35.0,29.0,29.32,SSE,158,0.0,0.0,80,0.00,,,0.19,,2013-02-20 22:41:00,
2013-02-20 15:51:00,35.0,29.0,29.32,SSE,158,0.0,0.0,79,0.00,,,0.19,,2013-02-20 22:51:00,
2013-02-20 16:01:00,35.0,29.0,29.36,SSE,158,0.0,0.0,79,0.00,,,0.19,,2013-02-20 23:01:00,
2013-02-20 16:11:00,35.0,29.0,29.36,SSE,158,0.0,0.0,79,0.04,,,0.23,,2013-02-20 23:11:00,
2013-02-20 16:21:00,35.0,29.0,29.36,SSE,158,0.0,0.0,79,0.04,,,0.23,,2013-02-20 23:21:00,
2013-02-20 16:31:00,35.0,29.0,29.36,West,270,0.0,0.0,80,0.04,,,0.23,,2013-02-20 23:31:00,
2013-02-20 16:42:00,35.0,29.0,29.36,West,270,0.0,0.0,80,0.04,,,0.23,,2013-02-20 23:42:00,
2013-02-20 16:52:00,34.0,29.0,29.36,West,270,0.0,0.0,81,0.04,,,0.23,,2013-02-20 23:52:00,
2013-02-20 17:02:00,33.0,28.0,29.36,West,270,0.0,0.0,81,0.04,,,0.23,,2013-02-21 00:02:00,
2013-02-20 17:11:00,33.0,28.0,29.36,West,270,0.0,0.0,81,0.04,,,0.23,,2013-02-21 00:11:00,
2013-02-20 17:21:00,34.0,28.0,29.36,West,270,0.0,0.0,80,0.00,,,0.23,,2013-02-21 00:21:00,
2013-02-20 17:31:00,34.0,28.0,29.36,West,270,0.0,0.0,79,0.00,,,0.23,,2013-02-21 00:31:00,
2013-02-20 17:41:00,34.0,28.0,29.36,West,270,0.0,0.0,79,0.00,,,0.23,,2013-02-21 00:41:00,
2013-02-20 17:52:00,34.0,28.0,29.39,West,270,0.0,0.0,78,0.00,,,0.23,,2013-02-21 00:52:00,
2013-02-20 18:01:00,34.0,28.0,29.39,West,270,0.0,0.0,78,0.00,,,0.23,,2013-02-21 01:01:00,
2013-02-20 18:11:00,34.0,28.0,29.39,West,270,0.0,0.0,78,0.00,,,0.23,,2013-02-21 01:11:00,
2013-02-20 18:21:00,34.0,28.0,29.39,West,270,0.0,0.0,79,0.00,,,0.23,,2013-02-21 01:21:00,
2013-02-20 18:31:00,34.0,28.0,29.39,West,270,0.0,0.0,78,0.00,,,0.23,,2013-02-21 01:31:00,
2013-02-20 18:41:00,34.0,28.0,29.39,West,270,0.0,0.0,78,0.00,,,0.23,,2013-02-21 01:41:00,
2013-02-20 18:52:00,34.0,28.0,29.39,West,270,0.0,0.0,78,0.00,,,0.23,,2013-02-21 01:52:00,
2013-02-20 19:01:00,34.0,28.0,29.42,West,270,0.0,0.0,78,0.00,,,0.23,,2013-02-21 02:01:00,
2013-02-20 19:11:00,34.0,28.0,29.42,West,270,0.0,0.0,78,0.00,,,0.23,,2013-02-21 02:11:00,
2013-02-20 19:21:00,34.0,28.0,29.46,West,270,0.0,0.0,77,0.00,,,0.23,,2013-02-21 02:21:00,
2013-02-20 19:32:00,34.0,28.0,29.46,West,270,0.0,0.0,77,0.00,,,0.23,,2013-02-21 02:32:00,
2013-02-20 19:42:00,34.0,28.0,29.46,West,270,0.0,0.0,77,0.00,,,0.23,,2013-02-21 02:42:00,
2013-02-20 19:51:00,34.0,28.0,29.46,West,270,0.0,0.0,77,0.00,,,0.23,,2013-02-21 02:51:00,
2013-02-20 20:01:00,34.0,27.0,29.46,West,270,0.0,0.0,76,0.00,,,0.23,,2013-02-21 03:01:00,
2013-02-20 20:11:00,34.0,27.0,29.46,West,270,0.0,0.0,76,0.00,,,0.23,,2013-02-21 03:11:00,
2013-02-20 20:21:00,34.0,27.0,29.46,West,270,0.0,0.0,76,0.00,,,0.23,,2013-02-21 03:21:00,
2013-02-20 20:31:00,34.0,27.0,29.49,West,270,0.0,0.0,75,0.00,,,0.23,,2013-02-21 03:31:00,
2013-02-20 20:41:00,34.0,27.0,29.49,West,270,0.0,0.0,75,0.00,,,0.23,,2013-02-21 03:41:00,
2013-02-20 20:51:00,34.0,27.0,29.49,West,270,0.0,0.0,75,0.00,,,0.23,,2013-02-21 03:51:00,
2013-02-20 21:01:00,34.0,27.0,29.49,West,270,0.0,0.0,74,0.00,,,0.23,,2013-02-21 04:01:00,
2013-02-20 21:11:00,34.0,27.0,29.49,West,270,0.0,0.0,74,0.00,,,0.23,,2013-02-21 04:11:00,
2013-02-20 21:21:00,34.0,27.0,29.49,West,270,0.0,0.0,75,0.00,,,0.23,,2013-02-21 04:21:00,
2013-02-20 21:31:00,34.0,28.0,29.49,West,270,0.0,0.0,77,0.00,,,0.23,,2013-02-21 04:31:00,
2013-02-20 21:41:00,34.0,28.0,29.49,West,270,0.0,0.0,77,0.00,,,0.23,,2013-02-21 04:41:00,
2013-02-20 21:52:00,33.0,27.0,29.49,West,270,0.0,0.0,77,0.00,,,0.23,,2013-02-21 04:52:00,
2013-02-20 22:02:00,33.0,27.0,29.52,West,270,0.0,0.0,77,0.00,,,0.23,,2013-02-21 05:02:00,
2013-02-20 22:11:00,33.0,27.0,29.52,West,270,0.0,0.0,77,0.00,,,0.23,,2013-02-21 05:11:00,
2013-02-20 22:21:00,33.0,27.0,29.52,West,270,0.0,0.0,78,0.00,,,0.23,,2013-02-21 05:21:00,
2013-02-20 22:32:00,33.0,27.0,29.56,West,270,0.0,0.0,77,0.00,,,0.23,,2013-02-21 05:32:00,
2013-02-20 22:42:00,33.0,27.0,29.56,West,270,0.0,0.0,77,0.00,,,0.23,,2013-02-21 05:42:00,
2013-02-20 22:55:00,34.0,27.0,29.52,West,270,0.0,0.0,76,0.00,,,0.23,,2013-02-21 05:55:00,
2013-02-20 23:01:00,34.0,27.0,29.52,West,270,0.0,0.0,76,0.00,,,0.23,,2013-02-21 06:01:00,
2013-02-20 23:10:00,34.0,27.0,29.52,West,270,0.0,0.0,76,0.00,,,0.23,,2013-02-21 06:10:00,
2013-02-20 23:21:00,34.0,27.0,29.56,West,270,0.0,0.0,75,0.00,,,0.23,,2013-02-21 06:21:00,
2013-02-20 23:31:00,34.0,27.0,29.56,West,270,0.0,0.0,75,0.00,,,0.23,,2013-02-21 06:31:00,
2013-02-20 23:41:00,34.0,27.0,29.56,West,270,0.0,0.0,75,0.00,,,0.23,,2013-02-21 06:41:00,
2013-02-20 23:51:00,34.0,27.0,29.56,West,270,0.0,0.0,75,0.00,,,0.23,,2013-02-21 06:51:00,